sensor_id;sensor_type;location;lat;lon;timestamp;P1;durP1;ratioP1;P2;durP2;ratioP2
47337;SDS011;33069;51.970;5.892;2024-03-02T00:01:50;62.70;;;59.47;;
47337;SDS011;33069;51.970;5.892;2024-03-02T00:04:36;89.63;;;85.07;;
47337;SDS011;33069;51.970;5.892;2024-03-02T00:07:22;68.50;;;65.20;;
47337;SDS011;33069;51.970;5.892;2024-03-02T00:10:10;69.65;;;66.22;;
47337;SDS011;33069;51.970;5.892;2024-03-02T00:12:59;130.00;;;122.40;;
47337;SDS011;33069;51.970;5.892;2024-03-02T00:15:46;93.32;;;88.68;;
47337;SDS011;33069;51.970;5.892;2024-03-02T00:18:35;75.45;;;71.28;;
47337;SDS011;33069;51.970;5.892;2024-03-02T00:21:24;82.63;;;78.32;;
47337;SDS011;33069;51.970;5.892;2024-03-02T00:24:18;90.22;;;85.63;;
47337;SDS011;33069;51.970;5.892;2024-03-02T00:27:12;71.55;;;68.03;;
47337;SDS011;33069;51.970;5.892;2024-03-02T00:30:00;128.85;;;121.10;;
47337;SDS011;33069;51.970;5.892;2024-03-02T00:32:47;81.93;;;77.82;;
47337;SDS011;33069;51.970;5.892;2024-03-02T00:35:33;84.32;;;80.13;;
47337;SDS011;33069;51.970;5.892;2024-03-02T00:38:18;87.45;;;82.63;;
47337;SDS011;33069;51.970;5.892;2024-03-02T00:41:05;77.05;;;73.25;;
47337;SDS011;33069;51.970;5.892;2024-03-02T00:46:51;101.50;;;96.38;;
47337;SDS011;33069;51.970;5.892;2024-03-02T00:49:38;72.45;;;68.65;;
47337;SDS011;33069;51.970;5.892;2024-03-02T00:52:24;74.07;;;69.93;;
47337;SDS011;33069;51.970;5.892;2024-03-02T00:55:10;70.20;;;66.65;;
47337;SDS011;33069;51.970;5.892;2024-03-02T00:57:57;68.18;;;64.57;;
47337;SDS011;33069;51.970;5.892;2024-03-02T01:00:43;96.68;;;91.63;;
47337;SDS011;33069;51.970;5.892;2024-03-02T01:03:30;77.45;;;73.60;;
47337;SDS011;33069;51.970;5.892;2024-03-02T01:06:17;79.60;;;75.28;;
47337;SDS011;33069;51.970;5.892;2024-03-02T01:09:03;67.32;;;64.05;;
47337;SDS011;33069;51.970;5.892;2024-03-02T01:11:49;73.82;;;69.93;;
47337;SDS011;33069;51.970;5.892;2024-03-02T01:14:35;77.28;;;73.40;;
47337;SDS011;33069;51.970;5.892;2024-03-02T01:17:21;72.47;;;68.63;;
47337;SDS011;33069;51.970;5.892;2024-03-02T01:20:08;62.85;;;59.75;;
47337;SDS011;33069;51.970;5.892;2024-03-02T01:22:55;87.63;;;83.25;;
47337;SDS011;33069;51.970;5.892;2024-03-02T01:25:40;67.55;;;63.97;;
47337;SDS011;33069;51.970;5.892;2024-03-02T01:28:26;71.15;;;67.57;;
47337;SDS011;33069;51.970;5.892;2024-03-02T01:31:13;77.80;;;73.93;;
47337;SDS011;33069;51.970;5.892;2024-03-02T01:33:59;82.45;;;78.13;;
47337;SDS011;33069;51.970;5.892;2024-03-02T01:36:45;62.60;;;59.10;;
47337;SDS011;33069;51.970;5.892;2024-03-02T01:39:30;58.08;;;55.13;;
47337;SDS011;33069;51.970;5.892;2024-03-02T01:42:16;61.03;;;57.70;;
47337;SDS011;33069;51.970;5.892;2024-03-02T01:45:05;140.90;;;133.20;;
47337;SDS011;33069;51.970;5.892;2024-03-02T01:47:53;123.63;;;115.30;;
47337;SDS011;33069;51.970;5.892;2024-03-02T01:50:39;43.42;;;41.33;;
47337;SDS011;33069;51.970;5.892;2024-03-02T01:53:25;47.83;;;45.50;;
47337;SDS011;33069;51.970;5.892;2024-03-02T01:56:11;37.10;;;35.22;;
47337;SDS011;33069;51.970;5.892;2024-03-02T01:58:57;43.28;;;41.13;;
47337;SDS011;33069;51.970;5.892;2024-03-02T02:01:43;48.35;;;46.03;;
47337;SDS011;33069;51.970;5.892;2024-03-02T02:04:29;45.67;;;43.45;;
47337;SDS011;33069;51.970;5.892;2024-03-02T02:07:16;40.22;;;38.33;;
47337;SDS011;33069;51.970;5.892;2024-03-02T02:10:02;57.65;;;54.45;;
47337;SDS011;33069;51.970;5.892;2024-03-02T02:12:48;43.70;;;41.67;;
47337;SDS011;33069;51.970;5.892;2024-03-02T02:15:34;56.13;;;53.42;;
47337;SDS011;33069;51.970;5.892;2024-03-02T02:18:21;50.97;;;48.63;;
47337;SDS011;33069;51.970;5.892;2024-03-02T02:21:07;55.53;;;52.92;;
47337;SDS011;33069;51.970;5.892;2024-03-02T02:23:53;41.53;;;39.58;;
47337;SDS011;33069;51.970;5.892;2024-03-02T02:26:39;47.30;;;45.10;;
47337;SDS011;33069;51.970;5.892;2024-03-02T02:29:25;51.30;;;48.95;;
47337;SDS011;33069;51.970;5.892;2024-03-02T02:32:11;49.38;;;47.10;;
47337;SDS011;33069;51.970;5.892;2024-03-02T02:34:57;55.83;;;53.20;;
47337;SDS011;33069;51.970;5.892;2024-03-02T02:37:45;57.38;;;54.63;;
47337;SDS011;33069;51.970;5.892;2024-03-02T02:40:32;56.58;;;53.85;;
47337;SDS011;33069;51.970;5.892;2024-03-02T02:43:18;58.70;;;55.97;;
47337;SDS011;33069;51.970;5.892;2024-03-02T02:46:04;59.92;;;57.10;;
47337;SDS011;33069;51.970;5.892;2024-03-02T02:48:50;132.60;;;122.22;;
47337;SDS011;33069;51.970;5.892;2024-03-02T02:51:38;55.17;;;52.58;;
47337;SDS011;33069;51.970;5.892;2024-03-02T02:54:24;55.20;;;52.50;;
47337;SDS011;33069;51.970;5.892;2024-03-02T02:57:10;58.70;;;56.00;;
47337;SDS011;33069;51.970;5.892;2024-03-02T02:59:56;60.55;;;57.60;;
47337;SDS011;33069;51.970;5.892;2024-03-02T03:02:42;62.08;;;59.05;;
47337;SDS011;33069;51.970;5.892;2024-03-02T03:05:30;46.25;;;44.13;;
47337;SDS011;33069;51.970;5.892;2024-03-02T03:08:16;73.20;;;69.32;;
47337;SDS011;33069;51.970;5.892;2024-03-02T03:11:02;55.33;;;52.78;;
47337;SDS011;33069;51.970;5.892;2024-03-02T03:13:49;63.75;;;60.70;;
47337;SDS011;33069;51.970;5.892;2024-03-02T03:16:35;69.47;;;66.07;;
47337;SDS011;33069;51.970;5.892;2024-03-02T03:19:21;60.92;;;58.15;;
47337;SDS011;33069;51.970;5.892;2024-03-02T03:22:07;61.35;;;58.45;;
47337;SDS011;33069;51.970;5.892;2024-03-02T03:24:53;53.80;;;51.22;;
47337;SDS011;33069;51.970;5.892;2024-03-02T03:27:39;53.85;;;51.38;;
47337;SDS011;33069;51.970;5.892;2024-03-02T03:30:25;56.85;;;54.20;;
47337;SDS011;33069;51.970;5.892;2024-03-02T03:33:11;55.50;;;52.85;;
47337;SDS011;33069;51.970;5.892;2024-03-02T03:35:57;48.05;;;45.85;;
47337;SDS011;33069;51.970;5.892;2024-03-02T03:38:43;42.88;;;40.88;;
47337;SDS011;33069;51.970;5.892;2024-03-02T03:41:29;46.53;;;44.33;;
47337;SDS011;33069;51.970;5.892;2024-03-02T03:44:15;44.40;;;42.30;;
47337;SDS011;33069;51.970;5.892;2024-03-02T03:47:01;40.33;;;38.40;;
47337;SDS011;33069;51.970;5.892;2024-03-02T03:49:48;69.13;;;64.97;;
47337;SDS011;33069;51.970;5.892;2024-03-02T03:52:34;43.60;;;41.60;;
47337;SDS011;33069;51.970;5.892;2024-03-02T03:55:20;60.22;;;57.25;;
47337;SDS011;33069;51.970;5.892;2024-03-02T03:58:05;85.80;;;81.50;;
47337;SDS011;33069;51.970;5.892;2024-03-02T04:00:51;50.70;;;48.33;;
47337;SDS011;33069;51.970;5.892;2024-03-02T04:03:38;89.60;;;84.57;;
47337;SDS011;33069;51.970;5.892;2024-03-02T04:06:24;59.63;;;56.63;;
47337;SDS011;33069;51.970;5.892;2024-03-02T04:09:10;82.55;;;78.80;;
47337;SDS011;33069;51.970;5.892;2024-03-02T04:11:56;145.95;;;138.52;;
47337;SDS011;33069;51.970;5.892;2024-03-02T04:14:42;83.72;;;79.78;;
47337;SDS011;33069;51.970;5.892;2024-03-02T04:17:28;169.85;;;158.07;;
47337;SDS011;33069;51.970;5.892;2024-03-02T04:20:14;80.97;;;77.18;;
47337;SDS011;33069;51.970;5.892;2024-03-02T04:23:00;84.18;;;80.20;;
47337;SDS011;33069;51.970;5.892;2024-03-02T04:25:46;86.72;;;82.72;;
47337;SDS011;33069;51.970;5.892;2024-03-02T04:28:32;101.25;;;95.80;;
47337;SDS011;33069;51.970;5.892;2024-03-02T04:31:18;98.82;;;94.15;;
47337;SDS011;33069;51.970;5.892;2024-03-02T04:34:04;89.53;;;85.32;;
47337;SDS011;33069;51.970;5.892;2024-03-02T04:36:50;100.18;;;95.43;;
47337;SDS011;33069;51.970;5.892;2024-03-02T04:39:36;76.35;;;72.75;;
47337;SDS011;33069;51.970;5.892;2024-03-02T04:42:22;87.72;;;83.28;;
47337;SDS011;33069;51.970;5.892;2024-03-02T04:45:08;108.30;;;103.30;;
47337;SDS011;33069;51.970;5.892;2024-03-02T04:47:54;99.68;;;95.07;;
47337;SDS011;33069;51.970;5.892;2024-03-02T04:50:40;97.72;;;93.15;;
47337;SDS011;33069;51.970;5.892;2024-03-02T04:53:26;99.38;;;94.80;;
47337;SDS011;33069;51.970;5.892;2024-03-02T04:56:12;118.85;;;113.30;;
47337;SDS011;33069;51.970;5.892;2024-03-02T04:59:17;121.40;;;115.87;;
47337;SDS011;33069;51.970;5.892;2024-03-02T05:02:03;123.18;;;117.28;;
47337;SDS011;33069;51.970;5.892;2024-03-02T05:04:49;139.40;;;132.30;;
47337;SDS011;33069;51.970;5.892;2024-03-02T05:07:35;142.65;;;136.02;;
47337;SDS011;33069;51.970;5.892;2024-03-02T05:10:21;136.48;;;130.23;;
47337;SDS011;33069;51.970;5.892;2024-03-02T05:13:07;154.23;;;146.90;;
47337;SDS011;33069;51.970;5.892;2024-03-02T05:15:53;115.18;;;109.78;;
47337;SDS011;33069;51.970;5.892;2024-03-02T05:18:39;173.15;;;165.15;;
47337;SDS011;33069;51.970;5.892;2024-03-02T05:21:25;171.27;;;163.02;;
47337;SDS011;33069;51.970;5.892;2024-03-02T05:24:11;145.93;;;139.10;;
47337;SDS011;33069;51.970;5.892;2024-03-02T05:26:57;138.52;;;132.07;;
47337;SDS011;33069;51.970;5.892;2024-03-02T05:29:43;152.90;;;145.60;;
47337;SDS011;33069;51.970;5.892;2024-03-02T05:32:29;123.38;;;117.60;;
47337;SDS011;33069;51.970;5.892;2024-03-02T05:35:15;159.95;;;152.52;;
47337;SDS011;33069;51.970;5.892;2024-03-02T05:38:01;139.52;;;132.40;;
47337;SDS011;33069;51.970;5.892;2024-03-02T05:40:47;107.60;;;102.47;;
47337;SDS011;33069;51.970;5.892;2024-03-02T05:43:33;148.50;;;141.02;;
47337;SDS011;33069;51.970;5.892;2024-03-02T05:46:19;118.95;;;113.43;;
47337;SDS011;33069;51.970;5.892;2024-03-02T05:49:05;139.63;;;133.15;;
47337;SDS011;33069;51.970;5.892;2024-03-02T05:51:55;138.80;;;132.10;;
47337;SDS011;33069;51.970;5.892;2024-03-02T05:54:41;97.85;;;93.22;;
47337;SDS011;33069;51.970;5.892;2024-03-02T05:57:27;100.50;;;95.82;;
47337;SDS011;33069;51.970;5.892;2024-03-02T06:00:34;132.40;;;126.00;;
47337;SDS011;33069;51.970;5.892;2024-03-02T06:03:20;161.00;;;153.60;;
47337;SDS011;33069;51.970;5.892;2024-03-02T06:06:06;141.73;;;135.15;;
47337;SDS011;33069;51.970;5.892;2024-03-02T06:08:52;131.23;;;125.00;;
47337;SDS011;33069;51.970;5.892;2024-03-02T06:11:39;101.05;;;96.32;;
47337;SDS011;33069;51.970;5.892;2024-03-02T06:14:26;113.53;;;108.25;;
47337;SDS011;33069;51.970;5.892;2024-03-02T06:17:12;106.38;;;101.35;;
47337;SDS011;33069;51.970;5.892;2024-03-02T06:19:58;111.45;;;106.22;;
47337;SDS011;33069;51.970;5.892;2024-03-02T06:22:43;130.50;;;124.47;;
47337;SDS011;33069;51.970;5.892;2024-03-02T06:25:29;120.65;;;114.75;;
47337;SDS011;33069;51.970;5.892;2024-03-02T06:28:15;131.95;;;125.82;;
47337;SDS011;33069;51.970;5.892;2024-03-02T06:31:02;151.43;;;144.40;;
47337;SDS011;33069;51.970;5.892;2024-03-02T06:33:48;134.13;;;127.88;;
47337;SDS011;33069;51.970;5.892;2024-03-02T06:36:34;144.32;;;137.52;;
47337;SDS011;33069;51.970;5.892;2024-03-02T06:39:20;148.65;;;141.70;;
47337;SDS011;33069;51.970;5.892;2024-03-02T06:42:06;158.13;;;150.60;;
47337;SDS011;33069;51.970;5.892;2024-03-02T06:44:51;122.53;;;116.75;;
47337;SDS011;33069;51.970;5.892;2024-03-02T06:47:37;121.95;;;115.82;;
47337;SDS011;33069;51.970;5.892;2024-03-02T06:50:23;121.95;;;116.22;;
47337;SDS011;33069;51.970;5.892;2024-03-02T06:53:09;122.82;;;116.78;;
47337;SDS011;33069;51.970;5.892;2024-03-02T06:55:55;129.98;;;123.93;;
47337;SDS011;33069;51.970;5.892;2024-03-02T06:58:41;163.52;;;155.82;;
47337;SDS011;33069;51.970;5.892;2024-03-02T07:01:28;140.48;;;132.95;;
47337;SDS011;33069;51.970;5.892;2024-03-02T07:04:14;155.85;;;147.48;;
47337;SDS011;33069;51.970;5.892;2024-03-02T07:07:00;159.48;;;151.52;;
47337;SDS011;33069;51.970;5.892;2024-03-02T07:09:46;146.13;;;139.15;;
47337;SDS011;33069;51.970;5.892;2024-03-02T07:12:33;169.88;;;160.00;;
47337;SDS011;33069;51.970;5.892;2024-03-02T07:15:19;137.80;;;131.43;;
47337;SDS011;33069;51.970;5.892;2024-03-02T07:18:14;104.15;;;98.88;;
47337;SDS011;33069;51.970;5.892;2024-03-02T07:21:00;139.90;;;133.35;;
47337;SDS011;33069;51.970;5.892;2024-03-02T07:23:46;119.28;;;113.57;;
47337;SDS011;33069;51.970;5.892;2024-03-02T07:26:32;129.52;;;123.40;;
47337;SDS011;33069;51.970;5.892;2024-03-02T07:29:18;127.18;;;120.97;;
47337;SDS011;33069;51.970;5.892;2024-03-02T07:32:04;124.10;;;118.25;;
47337;SDS011;33069;51.970;5.892;2024-03-02T07:34:51;111.90;;;105.85;;
47337;SDS011;33069;51.970;5.892;2024-03-02T07:37:37;118.65;;;112.80;;
47337;SDS011;33069;51.970;5.892;2024-03-02T07:40:23;112.55;;;107.00;;
47337;SDS011;33069;51.970;5.892;2024-03-02T07:43:09;130.60;;;124.15;;
47337;SDS011;33069;51.970;5.892;2024-03-02T07:45:56;132.70;;;126.20;;
47337;SDS011;33069;51.970;5.892;2024-03-02T07:48:42;126.53;;;120.25;;
47337;SDS011;33069;51.970;5.892;2024-03-02T07:51:28;115.57;;;110.28;;
47337;SDS011;33069;51.970;5.892;2024-03-02T07:54:14;108.38;;;103.30;;
47337;SDS011;33069;51.970;5.892;2024-03-02T07:57:00;106.55;;;101.57;;
47337;SDS011;33069;51.970;5.892;2024-03-02T07:59:46;114.47;;;108.63;;
47337;SDS011;33069;51.970;5.892;2024-03-02T08:02:32;109.25;;;103.32;;
47337;SDS011;33069;51.970;5.892;2024-03-02T08:05:18;96.93;;;91.97;;
47337;SDS011;33069;51.970;5.892;2024-03-02T08:08:05;53.63;;;50.88;;
47337;SDS011;33069;51.970;5.892;2024-03-02T08:10:51;55.20;;;52.13;;
47337;SDS011;33069;51.970;5.892;2024-03-02T08:13:37;58.83;;;55.92;;
47337;SDS011;33069;51.970;5.892;2024-03-02T08:16:23;58.28;;;55.17;;
47337;SDS011;33069;51.970;5.892;2024-03-02T08:19:10;64.03;;;60.88;;
47337;SDS011;33069;51.970;5.892;2024-03-02T08:21:56;63.30;;;60.05;;
47337;SDS011;33069;51.970;5.892;2024-03-02T08:24:44;58.95;;;55.67;;
47337;SDS011;33069;51.970;5.892;2024-03-02T08:27:31;66.72;;;63.15;;
47337;SDS011;33069;51.970;5.892;2024-03-02T08:30:18;57.17;;;54.17;;
47337;SDS011;33069;51.970;5.892;2024-03-02T08:33:04;58.10;;;55.20;;
47337;SDS011;33069;51.970;5.892;2024-03-02T08:35:51;64.20;;;60.75;;
47337;SDS011;33069;51.970;5.892;2024-03-02T08:38:37;62.63;;;59.35;;
47337;SDS011;33069;51.970;5.892;2024-03-02T08:41:23;92.85;;;88.05;;
47337;SDS011;33069;51.970;5.892;2024-03-02T08:44:09;144.95;;;136.00;;
47337;SDS011;33069;51.970;5.892;2024-03-02T08:46:55;80.05;;;76.15;;
47337;SDS011;33069;51.970;5.892;2024-03-02T08:49:41;101.78;;;96.50;;
47337;SDS011;33069;51.970;5.892;2024-03-02T08:52:28;120.93;;;114.35;;
47337;SDS011;33069;51.970;5.892;2024-03-02T08:55:14;112.57;;;106.40;;
47337;SDS011;33069;51.970;5.892;2024-03-02T08:58:00;98.45;;;93.75;;
47337;SDS011;33069;51.970;5.892;2024-03-02T09:00:47;86.97;;;82.75;;
47337;SDS011;33069;51.970;5.892;2024-03-02T09:03:33;79.22;;;75.25;;
47337;SDS011;33069;51.970;5.892;2024-03-02T09:06:20;90.53;;;85.35;;
47337;SDS011;33069;51.970;5.892;2024-03-02T09:09:06;65.25;;;61.47;;
47337;SDS011;33069;51.970;5.892;2024-03-02T09:11:52;109.60;;;102.82;;
47337;SDS011;33069;51.970;5.892;2024-03-02T09:14:40;72.00;;;67.82;;
47337;SDS011;33069;51.970;5.892;2024-03-02T09:17:26;73.50;;;69.80;;
47337;SDS011;33069;51.970;5.892;2024-03-02T09:20:12;175.32;;;159.60;;
47337;SDS011;33069;51.970;5.892;2024-03-02T09:22:59;71.90;;;67.72;;
47337;SDS011;33069;51.970;5.892;2024-03-02T09:25:45;100.25;;;94.43;;
47337;SDS011;33069;51.970;5.892;2024-03-02T09:28:31;73.13;;;69.28;;
47337;SDS011;33069;51.970;5.892;2024-03-02T09:31:17;455.33;;;408.00;;
47337;SDS011;33069;51.970;5.892;2024-03-02T09:34:03;84.50;;;79.82;;
47337;SDS011;33069;51.970;5.892;2024-03-02T09:36:50;87.85;;;83.22;;
47337;SDS011;33069;51.970;5.892;2024-03-02T09:39:37;92.97;;;88.13;;
47337;SDS011;33069;51.970;5.892;2024-03-02T09:42:22;168.25;;;156.70;;
47337;SDS011;33069;51.970;5.892;2024-03-02T09:45:09;78.45;;;74.28;;
47337;SDS011;33069;51.970;5.892;2024-03-02T09:47:55;85.78;;;81.07;;
47337;SDS011;33069;51.970;5.892;2024-03-02T09:50:41;69.43;;;65.68;;
47337;SDS011;33069;51.970;5.892;2024-03-02T09:53:29;55.72;;;52.80;;
47337;SDS011;33069;51.970;5.892;2024-03-02T09:56:17;81.45;;;77.43;;
47337;SDS011;33069;51.970;5.892;2024-03-02T09:59:06;100.72;;;95.10;;
47337;SDS011;33069;51.970;5.892;2024-03-02T10:01:59;99.53;;;93.53;;
47337;SDS011;33069;51.970;5.892;2024-03-02T10:04:47;108.72;;;102.68;;
47337;SDS011;33069;51.970;5.892;2024-03-02T10:07:34;111.80;;;106.13;;
47337;SDS011;33069;51.970;5.892;2024-03-02T10:10:20;136.43;;;129.45;;
47337;SDS011;33069;51.970;5.892;2024-03-02T10:13:07;177.90;;;167.43;;
47337;SDS011;33069;51.970;5.892;2024-03-02T10:15:54;115.80;;;110.13;;
47337;SDS011;33069;51.970;5.892;2024-03-02T10:18:41;219.23;;;206.80;;
47337;SDS011;33069;51.970;5.892;2024-03-02T10:21:27;123.03;;;116.28;;
47337;SDS011;33069;51.970;5.892;2024-03-02T10:24:13;129.80;;;121.78;;
47337;SDS011;33069;51.970;5.892;2024-03-02T10:26:59;78.68;;;74.60;;
47337;SDS011;33069;51.970;5.892;2024-03-02T10:29:46;205.35;;;193.43;;
47337;SDS011;33069;51.970;5.892;2024-03-02T10:32:32;69.35;;;65.65;;
47337;SDS011;33069;51.970;5.892;2024-03-02T10:35:19;120.65;;;112.60;;
47337;SDS011;33069;51.970;5.892;2024-03-02T10:38:05;89.20;;;83.38;;
47337;SDS011;33069;51.970;5.892;2024-03-02T10:40:52;67.60;;;63.85;;
47337;SDS011;33069;51.970;5.892;2024-03-02T10:43:38;59.42;;;56.42;;
47337;SDS011;33069;51.970;5.892;2024-03-02T10:46:26;138.90;;;129.02;;
47337;SDS011;33069;51.970;5.892;2024-03-02T10:49:17;77.88;;;73.38;;
47337;SDS011;33069;51.970;5.892;2024-03-02T10:52:03;53.85;;;51.05;;
47337;SDS011;33069;51.970;5.892;2024-03-02T10:54:49;52.78;;;49.78;;
47337;SDS011;33069;51.970;5.892;2024-03-02T10:57:52;168.25;;;155.10;;
47337;SDS011;33069;51.970;5.892;2024-03-02T11:00:39;82.88;;;78.47;;
47337;SDS011;33069;51.970;5.892;2024-03-02T11:03:28;73.15;;;69.00;;
47337;SDS011;33069;51.970;5.892;2024-03-02T11:06:18;115.22;;;107.78;;
47337;SDS011;33069;51.970;5.892;2024-03-02T11:09:06;69.22;;;65.70;;
47337;SDS011;33069;51.970;5.892;2024-03-02T11:12:00;71.10;;;67.55;;
47337;SDS011;33069;51.970;5.892;2024-03-02T11:15:10;52.17;;;49.50;;
47337;SDS011;33069;51.970;5.892;2024-03-02T11:17:58;60.40;;;57.25;;
47337;SDS011;33069;51.970;5.892;2024-03-02T11:20:45;80.55;;;76.40;;
47337;SDS011;33069;51.970;5.892;2024-03-02T11:23:32;59.50;;;56.50;;
47337;SDS011;33069;51.970;5.892;2024-03-02T11:26:22;63.35;;;59.90;;
47337;SDS011;33069;51.970;5.892;2024-03-02T11:29:09;54.28;;;51.38;;
47337;SDS011;33069;51.970;5.892;2024-03-02T11:32:21;58.65;;;55.33;;
47337;SDS011;33069;51.970;5.892;2024-03-02T11:35:11;53.28;;;50.30;;
47337;SDS011;33069;51.970;5.892;2024-03-02T11:37:57;59.70;;;56.45;;
47337;SDS011;33069;51.970;5.892;2024-03-02T11:40:44;75.65;;;71.78;;
47337;SDS011;33069;51.970;5.892;2024-03-02T11:43:30;209.45;;;172.30;;
47337;SDS011;33069;51.970;5.892;2024-03-02T11:46:17;83.15;;;78.97;;
47337;SDS011;33069;51.970;5.892;2024-03-02T11:49:07;154.30;;;144.45;;
47337;SDS011;33069;51.970;5.892;2024-03-02T11:52:00;70.35;;;66.70;;
47337;SDS011;33069;51.970;5.892;2024-03-02T11:54:49;87.07;;;82.72;;
47337;SDS011;33069;51.970;5.892;2024-03-02T11:57:36;95.80;;;90.32;;
47337;SDS011;33069;51.970;5.892;2024-03-02T12:00:23;137.80;;;129.32;;
47337;SDS011;33069;51.970;5.892;2024-03-02T12:03:12;1999.90;;;999.90;;
47337;SDS011;33069;51.970;5.892;2024-03-02T12:05:58;1999.90;;;999.90;;
47337;SDS011;33069;51.970;5.892;2024-03-02T12:08:44;1999.90;;;999.90;;
47337;SDS011;33069;51.970;5.892;2024-03-02T12:11:31;1999.90;;;999.90;;
47337;SDS011;33069;51.970;5.892;2024-03-02T12:14:17;1999.90;;;999.90;;
47337;SDS011;33069;51.970;5.892;2024-03-02T12:17:04;1999.90;;;999.90;;
47337;SDS011;33069;51.970;5.892;2024-03-02T12:19:51;1999.90;;;999.90;;
47337;SDS011;33069;51.970;5.892;2024-03-02T12:22:37;1999.90;;;999.90;;
47337;SDS011;33069;51.970;5.892;2024-03-02T12:25:23;1999.90;;;999.90;;
47337;SDS011;33069;51.970;5.892;2024-03-02T12:28:10;1999.90;;;999.90;;
47337;SDS011;33069;51.970;5.892;2024-03-02T12:30:56;1999.90;;;999.90;;
47337;SDS011;33069;51.970;5.892;2024-03-02T12:33:43;1999.90;;;999.90;;
47337;SDS011;33069;51.970;5.892;2024-03-02T12:36:29;1999.90;;;999.90;;
47337;SDS011;33069;51.970;5.892;2024-03-02T12:39:15;1999.90;;;999.90;;
47337;SDS011;33069;51.970;5.892;2024-03-02T12:42:02;1999.90;;;999.90;;
47337;SDS011;33069;51.970;5.892;2024-03-02T12:44:48;1999.90;;;999.90;;
47337;SDS011;33069;51.970;5.892;2024-03-02T12:47:34;1999.90;;;999.90;;
47337;SDS011;33069;51.970;5.892;2024-03-02T12:50:21;1999.90;;;999.90;;
47337;SDS011;33069;51.970;5.892;2024-03-02T12:53:13;1999.90;;;999.90;;
47337;SDS011;33069;51.970;5.892;2024-03-02T12:56:00;1999.90;;;999.90;;
47337;SDS011;33069;51.970;5.892;2024-03-02T12:58:47;1999.90;;;999.90;;
47337;SDS011;33069;51.970;5.892;2024-03-02T13:01:33;1999.90;;;999.90;;
47337;SDS011;33069;51.970;5.892;2024-03-02T13:04:25;1999.90;;;999.90;;
47337;SDS011;33069;51.970;5.892;2024-03-02T13:07:13;1999.90;;;999.90;;
47337;SDS011;33069;51.970;5.892;2024-03-02T13:09:59;1999.90;;;999.90;;
47337;SDS011;33069;51.970;5.892;2024-03-02T13:12:46;1999.90;;;999.90;;
47337;SDS011;33069;51.970;5.892;2024-03-02T13:15:35;1999.90;;;999.90;;
47337;SDS011;33069;51.970;5.892;2024-03-02T13:18:21;1999.90;;;999.90;;
47337;SDS011;33069;51.970;5.892;2024-03-02T13:21:08;1999.90;;;999.90;;
47337;SDS011;33069;51.970;5.892;2024-03-02T13:23:54;1999.90;;;999.90;;
47337;SDS011;33069;51.970;5.892;2024-03-02T13:26:40;1999.90;;;999.90;;
47337;SDS011;33069;51.970;5.892;2024-03-02T13:29:26;1999.90;;;999.90;;
47337;SDS011;33069;51.970;5.892;2024-03-02T13:32:15;1999.90;;;999.90;;
47337;SDS011;33069;51.970;5.892;2024-03-02T13:35:02;1999.90;;;999.90;;
47337;SDS011;33069;51.970;5.892;2024-03-02T13:37:48;1999.90;;;999.90;;
47337;SDS011;33069;51.970;5.892;2024-03-02T13:40:35;1999.90;;;999.90;;
47337;SDS011;33069;51.970;5.892;2024-03-02T13:43:21;1999.90;;;999.90;;
47337;SDS011;33069;51.970;5.892;2024-03-02T13:46:09;1999.90;;;999.90;;
47337;SDS011;33069;51.970;5.892;2024-03-02T13:48:55;1999.90;;;999.90;;
47337;SDS011;33069;51.970;5.892;2024-03-02T13:51:42;1999.90;;;999.90;;
47337;SDS011;33069;51.970;5.892;2024-03-02T13:54:28;1999.90;;;999.90;;
47337;SDS011;33069;51.970;5.892;2024-03-02T13:57:15;1999.90;;;999.90;;
47337;SDS011;33069;51.970;5.892;2024-03-02T14:00:05;1999.90;;;999.90;;
47337;SDS011;33069;51.970;5.892;2024-03-02T14:02:55;1999.90;;;999.90;;
47337;SDS011;33069;51.970;5.892;2024-03-02T14:05:42;1999.90;;;999.90;;
47337;SDS011;33069;51.970;5.892;2024-03-02T14:08:28;1999.90;;;999.90;;
47337;SDS011;33069;51.970;5.892;2024-03-02T14:11:15;1999.90;;;999.90;;
47337;SDS011;33069;51.970;5.892;2024-03-02T14:14:02;1999.90;;;999.90;;
47337;SDS011;33069;51.970;5.892;2024-03-02T14:16:48;1999.90;;;999.90;;
47337;SDS011;33069;51.970;5.892;2024-03-02T14:19:34;1999.90;;;999.90;;
47337;SDS011;33069;51.970;5.892;2024-03-02T14:22:21;1999.90;;;999.90;;
47337;SDS011;33069;51.970;5.892;2024-03-02T14:25:07;1999.90;;;999.90;;
47337;SDS011;33069;51.970;5.892;2024-03-02T14:27:53;1999.90;;;999.90;;
47337;SDS011;33069;51.970;5.892;2024-03-02T14:30:39;1999.90;;;999.90;;
47337;SDS011;33069;51.970;5.892;2024-03-02T14:33:25;1999.90;;;999.90;;
47337;SDS011;33069;51.970;5.892;2024-03-02T14:36:11;1999.90;;;999.90;;
47337;SDS011;33069;51.970;5.892;2024-03-02T14:38:57;1999.90;;;999.90;;
47337;SDS011;33069;51.970;5.892;2024-03-02T14:41:43;1999.90;;;999.90;;
47337;SDS011;33069;51.970;5.892;2024-03-02T14:44:29;1999.90;;;999.90;;
47337;SDS011;33069;51.970;5.892;2024-03-02T14:47:15;1999.90;;;999.90;;
47337;SDS011;33069;51.970;5.892;2024-03-02T14:50:01;1999.90;;;999.90;;
47337;SDS011;33069;51.970;5.892;2024-03-02T14:52:51;1999.90;;;999.90;;
47337;SDS011;33069;51.970;5.892;2024-03-02T14:55:37;1999.90;;;999.90;;
47337;SDS011;33069;51.970;5.892;2024-03-02T14:58:23;1999.90;;;999.90;;
47337;SDS011;33069;51.970;5.892;2024-03-02T15:01:11;1999.90;;;999.90;;
47337;SDS011;33069;51.970;5.892;2024-03-02T15:03:57;1999.90;;;999.90;;
47337;SDS011;33069;51.970;5.892;2024-03-02T15:06:43;1999.90;;;999.90;;
47337;SDS011;33069;51.970;5.892;2024-03-02T15:09:29;1999.90;;;999.90;;
47337;SDS011;33069;51.970;5.892;2024-03-02T15:12:15;1999.90;;;999.90;;
47337;SDS011;33069;51.970;5.892;2024-03-02T15:15:02;1999.90;;;999.90;;
47337;SDS011;33069;51.970;5.892;2024-03-02T15:17:49;1999.90;;;999.90;;
47337;SDS011;33069;51.970;5.892;2024-03-02T15:20:35;1999.90;;;999.90;;
47337;SDS011;33069;51.970;5.892;2024-03-02T15:23:21;1999.90;;;999.90;;
47337;SDS011;33069;51.970;5.892;2024-03-02T15:26:07;1999.90;;;999.90;;
47337;SDS011;33069;51.970;5.892;2024-03-02T15:28:53;1999.90;;;999.90;;
47337;SDS011;33069;51.970;5.892;2024-03-02T15:31:40;1999.90;;;999.90;;
47337;SDS011;33069;51.970;5.892;2024-03-02T15:34:26;1999.90;;;999.90;;
47337;SDS011;33069;51.970;5.892;2024-03-02T15:37:12;1999.90;;;999.90;;
47337;SDS011;33069;51.970;5.892;2024-03-02T15:39:58;1999.90;;;999.90;;
47337;SDS011;33069;51.970;5.892;2024-03-02T15:42:51;1999.90;;;999.90;;
47337;SDS011;33069;51.970;5.892;2024-03-02T15:45:37;1999.90;;;999.90;;
47337;SDS011;33069;51.970;5.892;2024-03-02T15:48:22;1999.90;;;999.90;;
47337;SDS011;33069;51.970;5.892;2024-03-02T15:51:09;1999.90;;;999.90;;
47337;SDS011;33069;51.970;5.892;2024-03-02T15:53:55;1999.90;;;999.90;;
47337;SDS011;33069;51.970;5.892;2024-03-02T15:56:41;1999.90;;;999.90;;
47337;SDS011;33069;51.970;5.892;2024-03-02T15:59:27;1999.90;;;999.90;;